McCutchenville, Ohio
Current Conditions -  °F | °C
As of 10:53 PM on Tuesday 27 Jan 2015 (Local Time) from KFDY Reporting Station
Clear Clear  
Wind Chill:   Ceiling: Unl
Heat Index:   Visibility: 9mi
Dew Point:   Wind: 3mph
Humidity: 84%   Direction: 270°W
Pressure: 30.2"   Gusts: NA
Location:  40.99°N, 83.26°W
Report Text: KFDY 280353Z AUTO 27003KT 9SM CLR M13/M15 A3020 RMK AO2 SLP240 T11281150
Loading
Personal Weather Stations






























Interactive Weather Map New forecast layout! Learn more

10-Day Weather Forecast

Advertisements
Track Severe Weather on mobile